Terminal Aerodrome Forecast
Issued by NWS

Home | Current Version | Previous Version | Text Only | Print | Product List | Glossary On
Versions: 1 2 3 4 5 6 7 8 9 10 11 12 13 14 15 16
000
FTUS42 KFFC 290524
TAFRYY
TAF
KRYY 290524Z 2906/3006 00000KT P6SM BKN200
     FM291500 17005KT P6SM BKN200
     FM291800 19008KT P6SM BKN080
     FM292300 20004KT P6SM SCT025 BKN080
     FM300100 23003KT P6SM BKN025 OVC080
      AMD NOT SKED TIL 291200=

USA.gov is the U.S. government's official web portal to all federal, state and local government web resources and services.